sensor_id;sensor_type;location;lat;lon;timestamp;P1;durP1;ratioP1;P2;durP2;ratioP2
20421;SDS011;10370;53.102;18.034;2022-08-01T00:00:19;9.40;;;4.88;;
20421;SDS011;10370;53.102;18.034;2022-08-01T00:05:40;7.53;;;4.75;;
20421;SDS011;10370;53.102;18.034;2022-08-01T00:11:03;6.20;;;4.95;;
20421;SDS011;10370;53.102;18.034;2022-08-01T00:16:24;10.02;;;5.65;;
20421;SDS011;10370;53.102;18.034;2022-08-01T00:21:47;7.35;;;5.20;;
20421;SDS011;10370;53.102;18.034;2022-08-01T00:27:10;6.60;;;4.90;;
20421;SDS011;10370;53.102;18.034;2022-08-01T00:32:31;5.75;;;4.53;;
20421;SDS011;10370;53.102;18.034;2022-08-01T00:37:52;8.88;;;5.40;;
20421;SDS011;10370;53.102;18.034;2022-08-01T00:43:14;7.53;;;4.90;;
20421;SDS011;10370;53.102;18.034;2022-08-01T00:48:35;7.78;;;5.10;;
20421;SDS011;10370;53.102;18.034;2022-08-01T00:53:55;6.55;;;4.80;;
20421;SDS011;10370;53.102;18.034;2022-08-01T00:59:17;7.88;;;5.22;;
20421;SDS011;10370;53.102;18.034;2022-08-01T01:04:38;8.88;;;6.43;;
20421;SDS011;10370;53.102;18.034;2022-08-01T01:10:03;11.00;;;7.22;;
20421;SDS011;10370;53.102;18.034;2022-08-01T01:15:43;15.38;;;8.45;;
20421;SDS011;10370;53.102;18.034;2022-08-01T01:38:20;10.48;;;8.38;;
20421;SDS011;10370;53.102;18.034;2022-08-01T01:43:43;15.82;;;10.60;;
20421;SDS011;10370;53.102;18.034;2022-08-01T01:49:07;14.27;;;8.20;;
20421;SDS011;10370;53.102;18.034;2022-08-01T01:54:42;14.45;;;9.10;;
20421;SDS011;10370;53.102;18.034;2022-08-01T02:00:08;13.43;;;8.50;;
20421;SDS011;10370;53.102;18.034;2022-08-01T02:05:32;14.00;;;8.80;;
20421;SDS011;10370;53.102;18.034;2022-08-01T02:10:56;29.05;;;10.88;;
20421;SDS011;10370;53.102;18.034;2022-08-01T02:16:37;30.75;;;11.82;;
20421;SDS011;10370;53.102;18.034;2022-08-01T02:22:06;31.60;;;13.23;;
20421;SDS011;10370;53.102;18.034;2022-08-01T02:27:34;33.40;;;13.52;;
20421;SDS011;10370;53.102;18.034;2022-08-01T02:33:04;25.48;;;11.18;;
20421;SDS011;10370;53.102;18.034;2022-08-01T02:38:35;21.27;;;10.32;;
20421;SDS011;10370;53.102;18.034;2022-08-01T02:44:01;20.30;;;10.60;;
20421;SDS011;10370;53.102;18.034;2022-08-01T02:49:25;20.92;;;9.65;;
20421;SDS011;10370;53.102;18.034;2022-08-01T02:54:48;19.48;;;8.95;;
20421;SDS011;10370;53.102;18.034;2022-08-01T03:00:12;15.38;;;9.15;;
20421;SDS011;10370;53.102;18.034;2022-08-01T03:05:35;15.95;;;9.48;;
20421;SDS011;10370;53.102;18.034;2022-08-01T03:10:57;14.48;;;8.88;;
20421;SDS011;10370;53.102;18.034;2022-08-01T03:16:21;14.18;;;9.35;;
20421;SDS011;10370;53.102;18.034;2022-08-01T03:21:44;14.15;;;9.18;;
20421;SDS011;10370;53.102;18.034;2022-08-01T03:27:08;12.15;;;8.18;;
20421;SDS011;10370;53.102;18.034;2022-08-01T03:32:30;14.30;;;8.93;;
20421;SDS011;10370;53.102;18.034;2022-08-01T03:37:52;14.00;;;8.13;;
20421;SDS011;10370;53.102;18.034;2022-08-01T03:43:39;11.40;;;8.05;;
20421;SDS011;10370;53.102;18.034;2022-08-01T03:49:05;12.82;;;8.48;;
20421;SDS011;10370;53.102;18.034;2022-08-01T03:54:31;27.80;;;16.35;;
20421;SDS011;10370;53.102;18.034;2022-08-01T03:59:55;17.27;;;10.80;;
20421;SDS011;10370;53.102;18.034;2022-08-01T04:05:19;15.98;;;9.43;;
20421;SDS011;10370;53.102;18.034;2022-08-01T04:10:40;12.32;;;9.10;;
20421;SDS011;10370;53.102;18.034;2022-08-01T04:16:02;13.10;;;8.75;;
20421;SDS011;10370;53.102;18.034;2022-08-01T04:21:25;12.43;;;9.40;;
20421;SDS011;10370;53.102;18.034;2022-08-01T04:26:49;13.70;;;8.88;;
20421;SDS011;10370;53.102;18.034;2022-08-01T04:32:11;18.85;;;10.95;;
20421;SDS011;10370;53.102;18.034;2022-08-01T04:37:35;17.70;;;9.98;;
20421;SDS011;10370;53.102;18.034;2022-08-01T04:42:57;15.68;;;8.80;;
20421;SDS011;10370;53.102;18.034;2022-08-01T04:48:18;14.88;;;9.80;;
20421;SDS011;10370;53.102;18.034;2022-08-01T04:53:42;14.23;;;9.82;;
20421;SDS011;10370;53.102;18.034;2022-08-01T04:59:04;17.58;;;10.65;;
20421;SDS011;10370;53.102;18.034;2022-08-01T05:04:44;13.95;;;10.15;;
20421;SDS011;10370;53.102;18.034;2022-08-01T05:10:06;18.08;;;9.55;;
20421;SDS011;10370;53.102;18.034;2022-08-01T05:20:47;15.93;;;9.88;;
20421;SDS011;10370;53.102;18.034;2022-08-01T05:26:10;16.40;;;10.27;;
20421;SDS011;10370;53.102;18.034;2022-08-01T05:31:33;13.85;;;10.20;;
20421;SDS011;10370;53.102;18.034;2022-08-01T05:36:54;22.50;;;13.32;;
20421;SDS011;10370;53.102;18.034;2022-08-01T05:42:16;15.38;;;11.68;;
20421;SDS011;10370;53.102;18.034;2022-08-01T05:47:38;16.23;;;12.13;;
20421;SDS011;10370;53.102;18.034;2022-08-01T05:53:02;17.30;;;13.90;;
20421;SDS011;10370;53.102;18.034;2022-08-01T05:58:23;13.52;;;11.25;;
20421;SDS011;10370;53.102;18.034;2022-08-01T06:03:44;20.95;;;12.10;;
20421;SDS011;10370;53.102;18.034;2022-08-01T06:09:05;18.75;;;11.48;;
20421;SDS011;10370;53.102;18.034;2022-08-01T06:14:26;14.52;;;10.75;;
20421;SDS011;10370;53.102;18.034;2022-08-01T06:19:47;15.73;;;10.43;;
20421;SDS011;10370;53.102;18.034;2022-08-01T06:25:08;18.52;;;10.18;;
20421;SDS011;10370;53.102;18.034;2022-08-01T06:30:29;16.27;;;10.02;;
20421;SDS011;10370;53.102;18.034;2022-08-01T06:35:50;19.10;;;9.07;;
20421;SDS011;10370;53.102;18.034;2022-08-01T06:41:11;18.30;;;9.32;;
20421;SDS011;10370;53.102;18.034;2022-08-01T06:46:34;19.05;;;9.82;;
20421;SDS011;10370;53.102;18.034;2022-08-01T06:51:55;17.70;;;8.88;;
20421;SDS011;10370;53.102;18.034;2022-08-01T06:57:16;21.55;;;7.47;;
20421;SDS011;10370;53.102;18.034;2022-08-01T07:02:37;16.52;;;7.68;;
20421;SDS011;10370;53.102;18.034;2022-08-01T07:07:58;13.20;;;7.68;;
20421;SDS011;10370;53.102;18.034;2022-08-01T07:13:20;16.35;;;7.82;;
20421;SDS011;10370;53.102;18.034;2022-08-01T07:18:45;14.35;;;7.88;;
20421;SDS011;10370;53.102;18.034;2022-08-01T07:24:06;10.98;;;7.07;;
20421;SDS011;10370;53.102;18.034;2022-08-01T07:29:28;14.63;;;7.22;;
20421;SDS011;10370;53.102;18.034;2022-08-01T07:34:49;12.35;;;6.70;;
20421;SDS011;10370;53.102;18.034;2022-08-01T07:40:10;11.60;;;6.85;;
20421;SDS011;10370;53.102;18.034;2022-08-01T07:45:31;12.13;;;7.07;;
20421;SDS011;10370;53.102;18.034;2022-08-01T07:50:53;11.95;;;6.75;;
20421;SDS011;10370;53.102;18.034;2022-08-01T07:56:14;11.32;;;6.93;;
20421;SDS011;10370;53.102;18.034;2022-08-01T08:01:35;11.55;;;6.03;;
20421;SDS011;10370;53.102;18.034;2022-08-01T08:06:56;10.68;;;7.10;;
20421;SDS011;10370;53.102;18.034;2022-08-01T08:12:17;15.60;;;7.35;;
20421;SDS011;10370;53.102;18.034;2022-08-01T08:17:47;13.27;;;7.75;;
20421;SDS011;10370;53.102;18.034;2022-08-01T08:23:13;11.20;;;6.93;;
20421;SDS011;10370;53.102;18.034;2022-08-01T08:29:02;18.13;;;8.35;;
20421;SDS011;10370;53.102;18.034;2022-08-01T08:34:24;12.75;;;7.70;;
20421;SDS011;10370;53.102;18.034;2022-08-01T08:39:47;13.15;;;7.95;;
20421;SDS011;10370;53.102;18.034;2022-08-01T08:45:11;20.25;;;8.55;;
20421;SDS011;10370;53.102;18.034;2022-08-01T08:50:32;9.38;;;7.22;;
20421;SDS011;10370;53.102;18.034;2022-08-01T08:55:54;11.07;;;8.27;;
20421;SDS011;10370;53.102;18.034;2022-08-01T09:01:16;15.85;;;9.20;;
20421;SDS011;10370;53.102;18.034;2022-08-01T09:06:38;13.52;;;9.27;;
20421;SDS011;10370;53.102;18.034;2022-08-01T09:12:01;13.80;;;10.90;;
20421;SDS011;10370;53.102;18.034;2022-08-01T09:17:22;17.15;;;10.35;;
20421;SDS011;10370;53.102;18.034;2022-08-01T09:22:43;20.23;;;11.48;;
20421;SDS011;10370;53.102;18.034;2022-08-01T09:28:06;19.70;;;12.20;;
20421;SDS011;10370;53.102;18.034;2022-08-01T09:33:47;17.25;;;11.02;;
20421;SDS011;10370;53.102;18.034;2022-08-01T09:39:13;16.92;;;11.68;;
20421;SDS011;10370;53.102;18.034;2022-08-01T09:44:38;18.05;;;10.80;;
20421;SDS011;10370;53.102;18.034;2022-08-01T09:50:02;14.65;;;9.55;;
20421;SDS011;10370;53.102;18.034;2022-08-01T09:55:29;10.75;;;9.13;;
20421;SDS011;10370;53.102;18.034;2022-08-01T10:00:59;13.15;;;9.55;;
20421;SDS011;10370;53.102;18.034;2022-08-01T10:06:20;12.52;;;9.18;;
20421;SDS011;10370;53.102;18.034;2022-08-01T10:11:44;17.48;;;9.18;;
20421;SDS011;10370;53.102;18.034;2022-08-01T10:17:07;12.65;;;8.73;;
20421;SDS011;10370;53.102;18.034;2022-08-01T10:22:30;10.98;;;8.32;;
20421;SDS011;10370;53.102;18.034;2022-08-01T10:27:54;13.45;;;8.63;;
20421;SDS011;10370;53.102;18.034;2022-08-01T10:33:21;17.45;;;9.60;;
20421;SDS011;10370;53.102;18.034;2022-08-01T10:39:02;9.73;;;8.18;;
20421;SDS011;10370;53.102;18.034;2022-08-01T10:50:07;12.93;;;8.63;;
20421;SDS011;10370;53.102;18.034;2022-08-01T11:01:16;16.17;;;8.77;;
20421;SDS011;10370;53.102;18.034;2022-08-01T11:06:51;14.05;;;8.20;;
20421;SDS011;10370;53.102;18.034;2022-08-01T11:12:37;8.20;;;7.30;;
20421;SDS011;10370;53.102;18.034;2022-08-01T11:18:49;12.15;;;8.15;;
20421;SDS011;10370;53.102;18.034;2022-08-01T11:23:49;12.13;;;7.43;;
20421;SDS011;10370;53.102;18.034;2022-08-01T11:29:14;16.20;;;8.38;;
20421;SDS011;10370;53.102;18.034;2022-08-01T11:34:55;16.50;;;7.32;;
20421;SDS011;10370;53.102;18.034;2022-08-01T11:45:47;10.77;;;7.28;;
20421;SDS011;10370;53.102;18.034;2022-08-01T11:51:15;10.77;;;6.97;;
20421;SDS011;10370;53.102;18.034;2022-08-01T11:56:43;8.48;;;6.05;;
20421;SDS011;10370;53.102;18.034;2022-08-01T12:02:14;8.48;;;5.68;;
20421;SDS011;10370;53.102;18.034;2022-08-01T12:07:50;10.90;;;5.72;;
20421;SDS011;10370;53.102;18.034;2022-08-01T12:13:11;7.10;;;4.95;;
20421;SDS011;10370;53.102;18.034;2022-08-01T12:18:37;8.50;;;5.07;;
20421;SDS011;10370;53.102;18.034;2022-08-01T12:24:02;8.73;;;5.05;;
20421;SDS011;10370;53.102;18.034;2022-08-01T12:29:34;6.95;;;4.70;;
20421;SDS011;10370;53.102;18.034;2022-08-01T12:35:05;6.10;;;4.70;;
20421;SDS011;10370;53.102;18.034;2022-08-01T12:40:32;5.57;;;4.60;;
20421;SDS011;10370;53.102;18.034;2022-08-01T12:46:04;9.52;;;4.25;;
20421;SDS011;10370;53.102;18.034;2022-08-01T12:51:24;9.45;;;4.28;;
20421;SDS011;10370;53.102;18.034;2022-08-01T12:56:45;9.75;;;3.70;;
20421;SDS011;10370;53.102;18.034;2022-08-01T13:02:10;6.20;;;3.83;;
20421;SDS011;10370;53.102;18.034;2022-08-01T13:07:45;9.90;;;4.20;;
20421;SDS011;10370;53.102;18.034;2022-08-01T13:13:06;5.78;;;4.32;;
20421;SDS011;10370;53.102;18.034;2022-08-01T13:18:31;8.07;;;4.40;;
20421;SDS011;10370;53.102;18.034;2022-08-01T13:29:31;8.55;;;4.28;;
20421;SDS011;10370;53.102;18.034;2022-08-01T13:35:00;6.38;;;4.20;;
20421;SDS011;10370;53.102;18.034;2022-08-01T13:40:25;5.25;;;3.97;;
20421;SDS011;10370;53.102;18.034;2022-08-01T13:45:47;5.05;;;3.83;;
20421;SDS011;10370;53.102;18.034;2022-08-01T13:51:08;4.85;;;3.40;;
20421;SDS011;10370;53.102;18.034;2022-08-01T13:56:41;3.67;;;3.38;;
20421;SDS011;10370;53.102;18.034;2022-08-01T14:02:02;5.57;;;3.60;;
20421;SDS011;10370;53.102;18.034;2022-08-01T14:07:23;6.38;;;3.63;;
20421;SDS011;10370;53.102;18.034;2022-08-01T14:12:44;5.43;;;3.63;;
20421;SDS011;10370;53.102;18.034;2022-08-01T14:18:08;6.15;;;3.47;;
20421;SDS011;10370;53.102;18.034;2022-08-01T14:23:30;5.95;;;3.70;;
20421;SDS011;10370;53.102;18.034;2022-08-01T14:28:51;7.13;;;4.00;;
20421;SDS011;10370;53.102;18.034;2022-08-01T14:34:13;7.50;;;4.30;;
20421;SDS011;10370;53.102;18.034;2022-08-01T14:39:34;7.35;;;4.18;;
20421;SDS011;10370;53.102;18.034;2022-08-01T14:44:55;8.50;;;4.22;;
20421;SDS011;10370;53.102;18.034;2022-08-01T14:50:16;5.55;;;4.32;;
20421;SDS011;10370;53.102;18.034;2022-08-01T14:55:37;7.05;;;4.18;;
20421;SDS011;10370;53.102;18.034;2022-08-01T15:01:01;5.95;;;4.40;;
20421;SDS011;10370;53.102;18.034;2022-08-01T15:06:24;5.50;;;4.38;;
20421;SDS011;10370;53.102;18.034;2022-08-01T15:11:45;10.27;;;4.43;;
20421;SDS011;10370;53.102;18.034;2022-08-01T15:17:07;5.88;;;4.90;;
20421;SDS011;10370;53.102;18.034;2022-08-01T15:22:28;12.20;;;6.07;;
20421;SDS011;10370;53.102;18.034;2022-08-01T15:27:49;9.00;;;5.47;;
20421;SDS011;10370;53.102;18.034;2022-08-01T15:33:10;10.95;;;5.95;;
20421;SDS011;10370;53.102;18.034;2022-08-01T15:38:33;7.72;;;5.20;;
20421;SDS011;10370;53.102;18.034;2022-08-01T15:43:53;9.25;;;4.75;;
20421;SDS011;10370;53.102;18.034;2022-08-01T15:49:15;7.93;;;4.75;;
20421;SDS011;10370;53.102;18.034;2022-08-01T15:54:37;8.95;;;4.85;;
20421;SDS011;10370;53.102;18.034;2022-08-01T16:00:00;8.32;;;5.07;;
20421;SDS011;10370;53.102;18.034;2022-08-01T16:05:22;8.48;;;5.28;;
20421;SDS011;10370;53.102;18.034;2022-08-01T16:10:43;7.93;;;4.90;;
20421;SDS011;10370;53.102;18.034;2022-08-01T16:16:06;5.88;;;4.60;;
20421;SDS011;10370;53.102;18.034;2022-08-01T16:21:27;7.25;;;4.80;;
20421;SDS011;10370;53.102;18.034;2022-08-01T16:26:48;5.40;;;4.90;;
20421;SDS011;10370;53.102;18.034;2022-08-01T16:32:09;9.40;;;5.30;;
20421;SDS011;10370;53.102;18.034;2022-08-01T16:37:34;8.23;;;5.75;;
20421;SDS011;10370;53.102;18.034;2022-08-01T16:42:59;9.45;;;5.30;;
20421;SDS011;10370;53.102;18.034;2022-08-01T16:48:21;8.32;;;5.57;;
20421;SDS011;10370;53.102;18.034;2022-08-01T16:53:56;10.05;;;5.53;;
20421;SDS011;10370;53.102;18.034;2022-08-01T16:59:19;7.50;;;5.57;;
20421;SDS011;10370;53.102;18.034;2022-08-01T17:04:40;10.07;;;5.78;;
20421;SDS011;10370;53.102;18.034;2022-08-01T17:10:01;11.57;;;5.72;;
20421;SDS011;10370;53.102;18.034;2022-08-01T17:15:23;11.02;;;6.47;;
20421;SDS011;10370;53.102;18.034;2022-08-01T17:20:46;12.85;;;6.43;;
20421;SDS011;10370;53.102;18.034;2022-08-01T17:26:11;19.63;;;10.55;;
20421;SDS011;10370;53.102;18.034;2022-08-01T17:31:40;9.93;;;7.15;;
20421;SDS011;10370;53.102;18.034;2022-08-01T17:37:03;10.57;;;6.07;;
20421;SDS011;10370;53.102;18.034;2022-08-01T17:47:55;10.10;;;6.70;;
20421;SDS011;10370;53.102;18.034;2022-08-01T17:53:20;13.95;;;8.30;;
20421;SDS011;10370;53.102;18.034;2022-08-01T17:58:45;24.60;;;10.68;;
20421;SDS011;10370;53.102;18.034;2022-08-01T18:04:18;12.18;;;7.80;;
20421;SDS011;10370;53.102;18.034;2022-08-01T18:09:54;16.85;;;8.77;;
20421;SDS011;10370;53.102;18.034;2022-08-01T18:15:15;12.95;;;7.40;;
20421;SDS011;10370;53.102;18.034;2022-08-01T18:20:36;12.90;;;7.43;;
20421;SDS011;10370;53.102;18.034;2022-08-01T18:25:58;10.90;;;7.85;;
20421;SDS011;10370;53.102;18.034;2022-08-01T18:31:21;12.68;;;7.25;;
20421;SDS011;10370;53.102;18.034;2022-08-01T18:36:43;10.18;;;7.13;;
20421;SDS011;10370;53.102;18.034;2022-08-01T18:42:04;10.43;;;7.47;;
20421;SDS011;10370;53.102;18.034;2022-08-01T18:47:28;8.35;;;7.32;;
20421;SDS011;10370;53.102;18.034;2022-08-01T18:52:52;9.63;;;7.53;;
20421;SDS011;10370;53.102;18.034;2022-08-01T18:58:13;15.48;;;8.27;;
20421;SDS011;10370;53.102;18.034;2022-08-01T19:03:41;12.43;;;8.50;;
20421;SDS011;10370;53.102;18.034;2022-08-01T19:09:04;14.27;;;8.90;;
20421;SDS011;10370;53.102;18.034;2022-08-01T19:14:27;27.17;;;9.90;;
20421;SDS011;10370;53.102;18.034;2022-08-01T19:19:54;17.73;;;10.23;;
20421;SDS011;10370;53.102;18.034;2022-08-01T19:25:15;22.63;;;11.85;;
20421;SDS011;10370;53.102;18.034;2022-08-01T19:30:36;26.50;;;12.70;;
20421;SDS011;10370;53.102;18.034;2022-08-01T19:35:57;26.33;;;14.13;;
20421;SDS011;10370;53.102;18.034;2022-08-01T19:41:24;23.67;;;13.77;;
20421;SDS011;10370;53.102;18.034;2022-08-01T19:53:50;13.00;;;9.00;;
20421;SDS011;10370;53.102;18.034;2022-08-01T19:59:16;14.18;;;8.80;;
20421;SDS011;10370;53.102;18.034;2022-08-01T20:04:42;14.63;;;7.65;;
20421;SDS011;10370;53.102;18.034;2022-08-01T20:10:03;18.95;;;6.95;;
20421;SDS011;10370;53.102;18.034;2022-08-01T20:15:24;11.32;;;6.20;;
20421;SDS011;10370;53.102;18.034;2022-08-01T20:20:46;9.70;;;5.93;;
20421;SDS011;10370;53.102;18.034;2022-08-01T20:26:08;12.20;;;5.82;;
20421;SDS011;10370;53.102;18.034;2022-08-01T20:31:29;7.45;;;5.30;;
20421;SDS011;10370;53.102;18.034;2022-08-01T20:37:02;10.25;;;5.22;;
20421;SDS011;10370;53.102;18.034;2022-08-01T20:42:28;8.77;;;4.72;;
20421;SDS011;10370;53.102;18.034;2022-08-01T20:47:51;9.90;;;4.32;;
20421;SDS011;10370;53.102;18.034;2022-08-01T20:53:15;10.00;;;4.70;;
20421;SDS011;10370;53.102;18.034;2022-08-01T21:04:38;8.07;;;4.70;;
20421;SDS011;10370;53.102;18.034;2022-08-01T21:10:14;9.23;;;4.57;;
20421;SDS011;10370;53.102;18.034;2022-08-01T21:15:39;9.52;;;4.55;;
20421;SDS011;10370;53.102;18.034;2022-08-01T21:21:01;6.38;;;3.85;;
20421;SDS011;10370;53.102;18.034;2022-08-01T21:26:23;7.53;;;4.47;;
20421;SDS011;10370;53.102;18.034;2022-08-01T21:31:45;8.85;;;4.30;;
20421;SDS011;10370;53.102;18.034;2022-08-01T21:37:28;8.23;;;4.43;;
20421;SDS011;10370;53.102;18.034;2022-08-01T21:42:51;8.23;;;4.32;;
20421;SDS011;10370;53.102;18.034;2022-08-01T21:48:14;6.55;;;4.20;;
20421;SDS011;10370;53.102;18.034;2022-08-01T21:53:40;7.47;;;4.15;;
20421;SDS011;10370;53.102;18.034;2022-08-01T22:10:24;8.40;;;4.50;;
20421;SDS011;10370;53.102;18.034;2022-08-01T22:15:45;9.50;;;4.72;;
20421;SDS011;10370;53.102;18.034;2022-08-01T22:21:06;10.52;;;4.57;;
20421;SDS011;10370;53.102;18.034;2022-08-01T22:26:28;12.10;;;4.70;;
20421;SDS011;10370;53.102;18.034;2022-08-01T22:31:49;10.10;;;4.55;;
20421;SDS011;10370;53.102;18.034;2022-08-01T22:37:16;8.50;;;4.97;;
20421;SDS011;10370;53.102;18.034;2022-08-01T22:42:54;7.97;;;5.10;;
20421;SDS011;10370;53.102;18.034;2022-08-01T22:48:22;8.00;;;5.18;;
20421;SDS011;10370;53.102;18.034;2022-08-01T22:53:52;7.10;;;5.18;;
20421;SDS011;10370;53.102;18.034;2022-08-01T22:59:15;5.68;;;4.97;;
20421;SDS011;10370;53.102;18.034;2022-08-01T23:04:44;6.80;;;5.40;;
20421;SDS011;10370;53.102;18.034;2022-08-01T23:10:07;8.82;;;5.43;;
20421;SDS011;10370;53.102;18.034;2022-08-01T23:15:28;8.95;;;5.53;;
20421;SDS011;10370;53.102;18.034;2022-08-01T23:20:50;8.80;;;5.72;;
20421;SDS011;10370;53.102;18.034;2022-08-01T23:26:15;10.30;;;5.50;;
20421;SDS011;10370;53.102;18.034;2022-08-01T23:31:37;9.13;;;5.70;;
20421;SDS011;10370;53.102;18.034;2022-08-01T23:37:10;8.43;;;5.70;;
20421;SDS011;10370;53.102;18.034;2022-08-01T23:42:32;11.32;;;5.97;;
20421;SDS011;10370;53.102;18.034;2022-08-01T23:47:53;9.20;;;5.60;;
20421;SDS011;10370;53.102;18.034;2022-08-01T23:53:14;6.45;;;5.60;;
20421;SDS011;10370;53.102;18.034;2022-08-01T23:58:35;7.35;;;5.85;;
